createdAt,value
2022-07-30T00:02:12.158Z,7.30
2022-07-30T00:04:39.930Z,7.60
2022-07-30T00:07:08.000Z,7.45
2022-07-30T00:09:36.234Z,8.27
2022-07-30T00:12:04.719Z,9.05
2022-07-30T00:14:34.770Z,9.10
2022-07-30T00:17:05.199Z,9.15
2022-07-30T00:19:34.532Z,9.75
2022-07-30T00:22:03.676Z,8.95
2022-07-30T00:24:31.456Z,8.05
2022-07-30T00:26:59.819Z,7.90
2022-07-30T00:29:27.922Z,7.68
2022-07-30T00:31:55.698Z,8.15
2022-07-30T00:34:25.119Z,7.28
2022-07-30T00:36:52.917Z,8.07
2022-07-30T00:39:20.706Z,8.13
2022-07-30T00:41:56.849Z,7.57
2022-07-30T00:44:24.648Z,7.72
2022-07-30T00:46:52.773Z,7.55
2022-07-30T00:49:20.977Z,7.75
2022-07-30T00:51:50.638Z,7.63
2022-07-30T00:54:19.331Z,6.80
2022-07-30T00:56:48.031Z,7.45
2022-07-30T00:59:15.992Z,7.68
2022-07-30T01:01:44.287Z,7.90
2022-07-30T01:04:12.447Z,8.02
2022-07-30T01:06:40.652Z,7.65
2022-07-30T01:09:10.162Z,8.73
2022-07-30T01:11:40.524Z,8.02
2022-07-30T01:14:09.974Z,8.85
2022-07-30T01:16:41.642Z,8.07
2022-07-30T01:19:33.650Z,8.25
2022-07-30T01:24:39.082Z,8.70
2022-07-30T01:27:09.668Z,8.00
2022-07-30T01:29:40.259Z,8.25
2022-07-30T01:32:09.877Z,9.27
2022-07-30T01:34:40.250Z,9.65
2022-07-30T01:37:10.470Z,9.48
2022-07-30T01:39:40.285Z,9.75
2022-07-30T01:42:11.042Z,10.32
2022-07-30T01:44:41.742Z,10.33
2022-07-30T01:47:10.490Z,10.95
2022-07-30T01:49:41.585Z,11.13
2022-07-30T01:52:11.218Z,11.32
2022-07-30T01:54:41.465Z,12.32
2022-07-30T01:57:11.290Z,11.05
2022-07-30T01:59:41.338Z,11.48
2022-07-30T02:02:09.163Z,12.98
2022-07-30T02:04:37.237Z,13.60
2022-07-30T02:07:10.032Z,16.67
2022-07-30T02:09:47.345Z,16.00
2022-07-30T02:12:32.162Z,14.93
2022-07-30T02:15:14.919Z,15.98
2022-07-30T02:17:50.231Z,17.55
2022-07-30T02:20:19.339Z,17.38
2022-07-30T02:22:58.021Z,16.77
2022-07-30T02:25:28.069Z,16.65
2022-07-30T02:28:03.312Z,17.17
2022-07-30T02:30:33.676Z,14.90
2022-07-30T02:33:05.874Z,15.55
2022-07-30T02:35:34.789Z,15.68
2022-07-30T02:38:04.196Z,15.13
2022-07-30T02:40:32.305Z,15.48
2022-07-30T02:43:02.223Z,15.95
2022-07-30T02:45:31.790Z,15.77
2022-07-30T02:48:03.074Z,15.52
2022-07-30T02:50:32.773Z,14.70
2022-07-30T02:53:02.083Z,15.35
2022-07-30T02:55:33.456Z,15.00
2022-07-30T02:58:04.960Z,13.57
2022-07-30T03:00:34.069Z,14.52
2022-07-30T03:03:05.779Z,15.13
2022-07-30T03:05:35.057Z,14.60
2022-07-30T03:08:05.360Z,13.80
2022-07-30T03:10:34.815Z,14.43
2022-07-30T03:13:06.898Z,16.08
2022-07-30T03:15:39.367Z,16.27
2022-07-30T03:18:10.309Z,19.70
2022-07-30T03:20:40.413Z,19.20
2022-07-30T03:23:09.974Z,19.67
2022-07-30T03:25:38.442Z,23.05
2022-07-30T03:28:08.890Z,20.08
2022-07-30T03:30:37.513Z,20.88
2022-07-30T03:33:06.855Z,19.52
2022-07-30T03:35:35.809Z,21.70
2022-07-30T03:38:05.992Z,19.52
2022-07-30T03:40:35.232Z,16.80
2022-07-30T03:43:03.683Z,19.05
2022-07-30T03:45:33.590Z,17.58
2022-07-30T03:48:01.362Z,18.67
2022-07-30T03:50:31.909Z,18.30
2022-07-30T03:52:59.913Z,20.92
2022-07-30T03:55:28.114Z,20.23
2022-07-30T03:57:56.206Z,19.75
2022-07-30T04:00:24.510Z,20.63
2022-07-30T04:02:54.372Z,20.60
2022-07-30T04:05:23.132Z,20.25
2022-07-30T04:07:51.040Z,20.70
2022-07-30T04:10:18.841Z,19.40
2022-07-30T04:12:46.869Z,18.75
2022-07-30T04:16:36.999Z,19.58
2022-07-30T04:18:07.037Z,19.05
2022-07-30T04:20:40.721Z,21.25
2022-07-30T04:23:09.849Z,20.27
2022-07-30T04:25:38.309Z,19.25
2022-07-30T04:28:07.268Z,19.92
2022-07-30T04:30:35.710Z,20.40
2022-07-30T04:33:05.752Z,19.20
2022-07-30T04:35:51.347Z,19.52
2022-07-30T04:38:21.053Z,19.75
2022-07-30T04:40:49.497Z,20.60
2022-07-30T04:43:17.784Z,19.38
2022-07-30T04:45:46.049Z,19.13
2022-07-30T04:48:15.158Z,18.98
2022-07-30T04:50:46.593Z,15.43
2022-07-30T04:53:16.698Z,14.32
2022-07-30T04:55:47.883Z,13.73
2022-07-30T04:58:19.764Z,13.85
2022-07-30T05:00:48.361Z,13.85
2022-07-30T05:03:18.663Z,13.82
2022-07-30T05:05:48.135Z,13.13
2022-07-30T05:08:16.366Z,13.70
2022-07-30T05:10:45.659Z,13.65
2022-07-30T05:13:14.483Z,13.48
2022-07-30T05:15:44.652Z,12.27
2022-07-30T05:18:12.894Z,12.80
2022-07-30T05:20:42.225Z,12.73
2022-07-30T05:23:10.006Z,12.93
2022-07-30T05:25:38.131Z,13.27
2022-07-30T05:28:06.252Z,13.30
2022-07-30T05:30:34.017Z,13.45
2022-07-30T05:33:03.616Z,11.82
2022-07-30T05:35:36.699Z,12.35
2022-07-30T05:38:06.261Z,11.82
2022-07-30T05:40:34.126Z,12.68
2022-07-30T05:43:02.059Z,14.00
2022-07-30T05:45:30.391Z,15.75
2022-07-30T05:47:58.161Z,15.88
2022-07-30T05:50:26.401Z,15.90
2022-07-30T05:52:55.970Z,16.20
2022-07-30T05:55:25.114Z,16.17
2022-07-30T05:57:53.058Z,16.58
2022-07-30T06:00:21.030Z,16.40
2022-07-30T06:02:48.837Z,17.25
2022-07-30T06:05:16.739Z,17.48
2022-07-30T06:07:44.941Z,18.00
2022-07-30T06:10:12.702Z,18.13
2022-07-30T06:12:42.438Z,15.82
2022-07-30T06:15:11.594Z,15.73
2022-07-30T06:17:44.037Z,15.57
2022-07-30T06:20:21.465Z,15.38
2022-07-30T06:22:49.390Z,16.48
2022-07-30T06:25:18.739Z,17.08
2022-07-30T06:27:48.870Z,17.20
2022-07-30T06:30:16.700Z,17.88
2022-07-30T06:32:45.698Z,18.40
2022-07-30T06:35:16.916Z,18.30
2022-07-30T06:38:06.726Z,18.88
2022-07-30T06:40:33.417Z,18.88
2022-07-30T06:43:04.104Z,18.00
2022-07-30T06:45:31.957Z,17.33
2022-07-30T06:48:00.970Z,17.70
2022-07-30T06:50:29.043Z,17.52
2022-07-30T06:52:56.773Z,17.40
2022-07-30T06:55:25.561Z,16.35
2022-07-30T06:57:53.386Z,16.00
2022-07-30T07:00:22.457Z,17.55
2022-07-30T07:02:50.570Z,16.50
2022-07-30T07:05:18.817Z,17.08
2022-07-30T07:07:58.283Z,16.00
2022-07-30T07:10:27.336Z,15.27
2022-07-30T07:12:55.685Z,15.52
2022-07-30T07:15:36.281Z,14.85
2022-07-30T07:18:06.846Z,15.93
2022-07-30T07:20:35.776Z,16.88
2022-07-30T07:23:09.369Z,14.57
2022-07-30T07:25:40.731Z,13.80
2022-07-30T07:28:12.237Z,14.30
2022-07-30T07:30:44.263Z,13.00
2022-07-30T07:33:13.319Z,13.25
2022-07-30T07:35:49.658Z,12.77
2022-07-30T07:38:18.723Z,13.38
2022-07-30T07:40:47.272Z,12.50
2022-07-30T07:43:15.552Z,12.07
2022-07-30T07:45:46.301Z,11.40
2022-07-30T07:48:14.226Z,12.07
2022-07-30T07:50:41.981Z,12.15
2022-07-30T07:53:10.294Z,11.82
2022-07-30T07:55:37.997Z,12.13
2022-07-30T07:58:05.830Z,12.35
2022-07-30T08:00:34.184Z,12.50
2022-07-30T08:03:03.378Z,13.57
2022-07-30T08:05:56.838Z,12.82
2022-07-30T08:08:19.365Z,12.48
2022-07-30T08:10:47.635Z,11.52
2022-07-30T08:13:49.256Z,12.65
2022-07-30T08:16:03.800Z,11.52
2022-07-30T08:18:32.880Z,11.75
2022-07-30T08:21:00.637Z,11.60
2022-07-30T08:23:28.873Z,11.57
2022-07-30T08:25:58.203Z,10.88
2022-07-30T08:28:36.525Z,12.20
2022-07-30T08:31:05.184Z,10.60
2022-07-30T08:33:34.424Z,11.10
2022-07-30T08:36:04.397Z,11.40
2022-07-30T08:38:39.265Z,9.70
2022-07-30T08:41:07.556Z,9.85
2022-07-30T08:43:36.481Z,10.00
2022-07-30T08:46:09.755Z,9.77
2022-07-30T08:48:39.336Z,9.38
2022-07-30T08:51:08.342Z,9.55
2022-07-30T08:53:36.846Z,8.23
2022-07-30T08:56:05.537Z,9.07
2022-07-30T08:58:35.464Z,9.02
2022-07-30T09:01:03.769Z,8.68
2022-07-30T09:03:32.603Z,8.18
2022-07-30T09:06:03.886Z,8.82
2022-07-30T09:08:32.341Z,8.07
2022-07-30T09:11:00.350Z,7.35
2022-07-30T09:13:30.876Z,6.65
2022-07-30T09:16:00.021Z,8.10
2022-07-30T09:18:30.110Z,7.15
2022-07-30T09:21:00.379Z,7.00
2022-07-30T09:23:30.053Z,6.63
2022-07-30T09:26:00.525Z,7.05
2022-07-30T09:28:31.061Z,6.43
2022-07-30T09:30:58.995Z,5.78
2022-07-30T09:33:35.710Z,5.30
2022-07-30T09:36:06.788Z,6.90
2022-07-30T09:38:45.751Z,7.70
2022-07-30T09:41:36.227Z,7.07
2022-07-30T09:44:04.952Z,7.10
2022-07-30T09:46:44.963Z,6.70
2022-07-30T09:49:16.917Z,6.15
2022-07-30T09:51:55.755Z,6.13
2022-07-30T09:54:26.944Z,6.68
2022-07-30T09:57:15.959Z,6.30
2022-07-30T09:59:53.906Z,6.60
2022-07-30T10:02:32.048Z,6.25
2022-07-30T10:05:14.136Z,6.82
2022-07-30T10:07:53.158Z,5.78
2022-07-30T10:10:25.794Z,5.57
2022-07-30T10:12:59.085Z,5.55
2022-07-30T10:15:30.732Z,5.55
2022-07-30T10:18:01.284Z,5.28
2022-07-30T10:20:29.949Z,6.10
2022-07-30T10:23:07.753Z,5.88
2022-07-30T10:25:48.946Z,5.75
2022-07-30T10:28:23.253Z,5.82
2022-07-30T10:30:53.277Z,6.20
2022-07-30T10:33:36.700Z,5.97
2022-07-30T10:36:12.064Z,5.40
2022-07-30T10:38:42.928Z,5.65
2022-07-30T10:44:32.450Z,6.05
2022-07-30T10:47:06.576Z,6.10
2022-07-30T10:49:41.217Z,5.53
2022-07-30T10:52:12.307Z,6.18
2022-07-30T10:54:43.089Z,6.28
2022-07-30T10:57:23.038Z,6.07
2022-07-30T11:00:12.005Z,5.10
2022-07-30T11:02:40.445Z,4.97
2022-07-30T11:05:32.060Z,5.00
2022-07-30T11:08:36.149Z,4.88
2022-07-30T11:13:54.626Z,4.05
2022-07-30T11:16:24.372Z,4.60
2022-07-30T11:19:55.946Z,3.80
2022-07-30T11:22:28.204Z,3.50
2022-07-30T11:24:56.563Z,3.90
2022-07-30T11:27:36.672Z,3.55
2022-07-30T11:30:28.445Z,3.90
2022-07-30T11:35:35.290Z,3.90
2022-07-30T11:38:07.089Z,3.47
2022-07-30T11:40:36.841Z,4.25
2022-07-30T11:43:25.609Z,4.05
2022-07-30T11:46:10.528Z,3.85
2022-07-30T11:48:42.857Z,4.10
2022-07-30T11:51:11.537Z,3.92
2022-07-30T11:53:39.365Z,4.13
2022-07-30T11:56:09.422Z,4.18
2022-07-30T11:58:41.780Z,3.90
2022-07-30T12:01:14.267Z,4.20
2022-07-30T12:03:45.132Z,5.93
2022-07-30T12:06:18.030Z,4.45
2022-07-30T12:08:48.471Z,4.00
2022-07-30T12:11:16.616Z,4.63
2022-07-30T12:13:46.243Z,4.22
2022-07-30T12:16:17.199Z,5.10
2022-07-30T12:18:47.355Z,4.33
2022-07-30T12:21:16.758Z,4.80
2022-07-30T12:23:54.349Z,8.68
2022-07-30T12:26:24.617Z,4.70
2022-07-30T12:28:56.041Z,4.72
2022-07-30T12:31:24.437Z,4.32
2022-07-30T12:33:56.243Z,5.18
2022-07-30T12:36:29.415Z,5.63
2022-07-30T12:38:58.095Z,5.85
2022-07-30T12:41:42.538Z,6.13
2022-07-30T12:44:11.012Z,7.68
2022-07-30T12:46:41.327Z,6.43
2022-07-30T12:49:17.495Z,7.63
2022-07-30T12:52:00.517Z,7.05
2022-07-30T12:54:29.722Z,7.55
2022-07-30T12:57:00.344Z,6.80
2022-07-30T12:59:29.234Z,14.85
2022-07-30T13:02:00.280Z,7.60
2022-07-30T13:04:31.850Z,7.70
2022-07-30T13:07:07.999Z,7.07
2022-07-30T13:09:36.995Z,7.32
2022-07-30T13:12:05.545Z,9.68
2022-07-30T13:14:33.682Z,8.68
2022-07-30T13:17:04.010Z,8.70
2022-07-30T13:19:33.675Z,9.27
2022-07-30T13:22:01.378Z,10.05
2022-07-30T13:24:29.442Z,8.55
2022-07-30T13:26:57.437Z,9.07
2022-07-30T13:29:25.377Z,8.85
2022-07-30T13:31:53.598Z,8.85
2022-07-30T13:34:21.567Z,9.52
2022-07-30T13:36:50.693Z,8.70
2022-07-30T13:39:18.843Z,10.73
2022-07-30T13:41:46.662Z,9.85
2022-07-30T13:44:14.436Z,9.88
2022-07-30T13:46:42.535Z,9.05
2022-07-30T13:49:10.710Z,8.70
2022-07-30T13:51:38.929Z,9.85
2022-07-30T13:54:08.612Z,8.98
2022-07-30T13:56:40.732Z,9.15
2022-07-30T13:59:09.329Z,10.45
2022-07-30T14:01:38.154Z,10.55
2022-07-30T14:04:08.367Z,11.80
2022-07-30T14:06:36.686Z,12.43
2022-07-30T14:09:04.841Z,12.80
2022-07-30T14:11:34.365Z,14.15
2022-07-30T14:14:02.606Z,15.23
2022-07-30T14:16:46.098Z,16.13
2022-07-30T14:19:23.061Z,17.98
2022-07-30T14:21:53.885Z,18.27
2022-07-30T14:24:22.417Z,19.30
2022-07-30T14:26:57.398Z,20.52
2022-07-30T14:29:27.324Z,21.13
2022-07-30T14:31:55.345Z,21.85
2022-07-30T14:34:23.161Z,21.30
2022-07-30T14:36:51.580Z,22.55
2022-07-30T14:39:19.376Z,23.10
2022-07-30T14:41:47.149Z,23.17
2022-07-30T14:44:16.875Z,22.92
2022-07-30T14:46:51.423Z,23.77
2022-07-30T14:49:21.151Z,26.52
2022-07-30T14:51:49.029Z,26.13
2022-07-30T14:54:16.919Z,24.92
2022-07-30T14:56:45.110Z,24.83
2022-07-30T14:59:12.917Z,24.50
2022-07-30T15:01:43.726Z,25.65
2022-07-30T15:04:12.468Z,26.00
2022-07-30T15:06:41.700Z,26.20
2022-07-30T15:09:10.404Z,29.00
2022-07-30T15:12:07.708Z,27.83
2022-07-30T15:14:28.276Z,28.88
2022-07-30T15:17:03.543Z,27.60
2022-07-30T15:19:32.238Z,27.00
2022-07-30T15:22:02.194Z,28.85
2022-07-30T15:24:31.050Z,27.35
2022-07-30T15:26:59.080Z,26.67
2022-07-30T15:29:27.242Z,26.00
2022-07-30T15:31:55.234Z,27.70
2022-07-30T15:34:24.327Z,26.05
2022-07-30T15:36:52.638Z,25.48
2022-07-30T15:39:20.378Z,26.38
2022-07-30T15:41:48.160Z,25.52
2022-07-30T15:44:20.405Z,24.10
2022-07-30T15:46:48.778Z,24.65
2022-07-30T15:49:16.568Z,25.23
2022-07-30T15:51:48.640Z,24.80
2022-07-30T15:54:22.296Z,24.70
2022-07-30T15:56:51.752Z,24.95
2022-07-30T15:59:19.617Z,25.33
2022-07-30T16:01:48.223Z,25.80
2022-07-30T16:04:18.396Z,27.95
2022-07-30T16:06:49.336Z,27.52
2022-07-30T16:09:17.866Z,28.13
2022-07-30T16:11:46.793Z,28.60
2022-07-30T16:14:14.812Z,28.45
2022-07-30T16:16:43.289Z,28.00
2022-07-30T16:19:11.388Z,27.70
2022-07-30T16:21:39.125Z,30.23
2022-07-30T16:24:08.736Z,28.33
2022-07-30T16:26:37.231Z,31.60
2022-07-30T16:29:05.241Z,31.30
2022-07-30T16:31:33.387Z,30.65
2022-07-30T16:34:01.500Z,33.00
2022-07-30T16:36:29.484Z,34.28
2022-07-30T16:38:57.603Z,35.13
2022-07-30T16:41:26.709Z,38.00
2022-07-30T16:43:54.473Z,35.83
2022-07-30T16:46:23.760Z,35.35
2022-07-30T16:48:51.652Z,36.08
2022-07-30T16:51:19.731Z,34.20
2022-07-30T16:53:48.569Z,35.38
2022-07-30T16:56:16.476Z,36.72
2022-07-30T16:58:45.744Z,33.28
2022-07-30T17:01:13.862Z,37.67
2022-07-30T17:03:41.949Z,36.50
2022-07-30T17:06:09.860Z,38.58
2022-07-30T17:08:37.965Z,37.35
2022-07-30T17:11:09.482Z,34.08
2022-07-30T17:13:40.359Z,31.95
2022-07-30T17:16:09.685Z,27.40
2022-07-30T17:18:37.458Z,24.27
2022-07-30T17:21:05.513Z,24.08
2022-07-30T17:23:35.958Z,23.23
2022-07-30T17:26:03.800Z,25.90
2022-07-30T17:28:31.986Z,25.48
2022-07-30T17:30:59.754Z,25.35
2022-07-30T17:33:29.094Z,25.20
2022-07-30T17:35:57.277Z,25.05
2022-07-30T17:38:28.048Z,25.77
2022-07-30T17:40:56.021Z,25.55
2022-07-30T17:43:24.222Z,26.40
2022-07-30T17:45:52.589Z,25.98
2022-07-30T17:48:21.722Z,25.77
2022-07-30T17:50:51.375Z,25.85
2022-07-30T17:53:19.191Z,27.10
2022-07-30T17:55:57.401Z,26.80
2022-07-30T17:58:26.812Z,25.73
2022-07-30T18:00:55.747Z,25.98
2022-07-30T18:03:23.620Z,25.60
2022-07-30T18:05:53.461Z,27.10
2022-07-30T18:08:21.226Z,24.83
2022-07-30T18:10:50.075Z,26.75
2022-07-30T18:13:26.888Z,24.98
2022-07-30T18:15:55.308Z,24.77
2022-07-30T18:18:23.428Z,24.50
2022-07-30T18:20:51.237Z,25.13
2022-07-30T18:23:20.467Z,25.48
2022-07-30T18:28:22.429Z,26.70
2022-07-30T18:30:50.613Z,27.45
2022-07-30T18:33:18.978Z,27.00
2022-07-30T18:35:46.714Z,28.80
2022-07-30T18:38:15.007Z,29.08
2022-07-30T18:40:45.014Z,31.05
2022-07-30T18:43:13.099Z,34.88
2022-07-30T18:45:40.926Z,29.05
2022-07-30T18:48:09.424Z,30.35
2022-07-30T18:50:37.186Z,29.35
2022-07-30T18:53:15.068Z,30.48
2022-07-30T18:55:45.889Z,32.15
2022-07-30T18:58:13.673Z,32.38
2022-07-30T19:00:43.861Z,31.80
2022-07-30T19:03:16.439Z,32.15
2022-07-30T19:05:46.570Z,34.28
2022-07-30T19:08:14.949Z,35.10
2022-07-30T19:10:43.690Z,35.80
2022-07-30T19:13:12.849Z,39.63
2022-07-30T19:15:41.054Z,38.20
2022-07-30T19:18:10.213Z,39.22
2022-07-30T19:20:38.069Z,39.08
2022-07-30T19:23:07.642Z,40.03
2022-07-30T19:25:39.145Z,37.92
2022-07-30T19:28:07.287Z,36.30
2022-07-30T19:30:36.701Z,35.83
2022-07-30T19:33:05.714Z,36.72
2022-07-30T19:35:34.267Z,36.75
2022-07-30T19:38:02.101Z,37.22
2022-07-30T19:40:30.518Z,37.47
2022-07-30T19:43:01.944Z,35.67
2022-07-30T19:45:47.793Z,34.38
2022-07-30T19:50:58.165Z,31.23
2022-07-30T19:53:27.907Z,30.00
2022-07-30T19:56:01.531Z,31.83
2022-07-30T19:58:30.182Z,29.42
2022-07-30T20:00:59.486Z,31.70
2022-07-30T20:03:31.947Z,30.02
2022-07-30T20:06:00.722Z,30.65
2022-07-30T20:08:28.846Z,31.73
2022-07-30T20:10:57.750Z,30.27
2022-07-30T20:13:45.139Z,29.17
2022-07-30T20:16:15.752Z,28.95
2022-07-30T20:18:46.288Z,24.95
2022-07-30T20:21:16.061Z,24.50
2022-07-30T20:23:45.451Z,22.15
2022-07-30T20:26:15.838Z,21.75
2022-07-30T20:28:45.020Z,20.67
2022-07-30T20:31:15.814Z,22.88
2022-07-30T20:33:49.495Z,23.90
2022-07-30T20:36:19.573Z,23.70
2022-07-30T20:38:47.789Z,24.58
2022-07-30T20:41:15.878Z,23.83
2022-07-30T20:43:45.995Z,22.08
2022-07-30T20:46:23.293Z,25.25
2022-07-30T20:48:51.963Z,23.55
2022-07-30T20:51:20.229Z,24.40
2022-07-30T20:53:49.390Z,22.50
2022-07-30T20:56:19.469Z,24.20
2022-07-30T20:58:48.180Z,25.25
2022-07-30T21:01:17.727Z,25.13
2022-07-30T21:03:48.757Z,25.65
2022-07-30T21:06:16.740Z,26.73
2022-07-30T21:08:44.555Z,27.30
2022-07-30T21:11:12.933Z,30.23
2022-07-30T21:13:42.368Z,30.23
2022-07-30T21:16:15.627Z,30.90
2022-07-30T21:18:49.913Z,33.83
2022-07-30T21:21:38.204Z,33.83
2022-07-30T21:24:11.562Z,34.17
2022-07-30T21:26:40.814Z,35.45
2022-07-30T21:29:09.591Z,33.40
2022-07-30T21:32:01.801Z,33.33
2022-07-30T21:34:28.098Z,33.28
2022-07-30T21:36:58.923Z,35.78
2022-07-30T21:39:28.779Z,37.00
2022-07-30T21:41:57.291Z,39.88
2022-07-30T21:44:25.358Z,40.42
2022-07-30T21:46:55.444Z,42.25
2022-07-30T21:49:23.895Z,42.83
2022-07-30T21:51:51.658Z,41.53
2022-07-30T21:54:28.741Z,39.67
2022-07-30T21:56:58.252Z,35.50
2022-07-30T21:59:27.837Z,38.15
2022-07-30T22:01:55.909Z,36.67
2022-07-30T22:04:24.180Z,33.47
2022-07-30T22:06:55.258Z,35.78
2022-07-30T22:09:33.977Z,36.28
2022-07-30T22:12:06.427Z,37.75
2022-07-30T22:14:39.096Z,38.88
2022-07-30T22:17:22.416Z,37.65
2022-07-30T22:19:51.469Z,41.40
2022-07-30T22:22:27.450Z,39.22
2022-07-30T22:24:59.924Z,40.75
2022-07-30T22:27:55.913Z,39.53
2022-07-30T22:30:26.639Z,42.58
2022-07-30T22:32:54.870Z,43.45
2022-07-30T22:35:32.497Z,41.30
2022-07-30T22:38:03.253Z,43.15
2022-07-30T22:40:33.104Z,45.85
2022-07-30T22:43:07.571Z,45.27
2022-07-30T22:45:47.383Z,47.90
2022-07-30T22:48:20.142Z,43.85
2022-07-30T22:50:55.514Z,40.30
2022-07-30T22:54:10.682Z,46.22
2022-07-30T22:56:15.551Z,43.78
2022-07-30T23:01:11.301Z,43.70
2022-07-30T23:03:39.396Z,45.05
2022-07-30T23:06:14.468Z,46.22
2022-07-30T23:08:42.722Z,45.97
2022-07-30T23:11:10.465Z,45.75
2022-07-30T23:13:39.672Z,47.40
2022-07-30T23:16:07.750Z,47.55
2022-07-30T23:18:35.828Z,43.50
2022-07-30T23:21:04.739Z,43.78
2022-07-30T23:23:34.057Z,44.95
2022-07-30T23:26:02.992Z,44.53
2022-07-30T23:28:31.144Z,44.40
2022-07-30T23:31:01.025Z,45.58
2022-07-30T23:33:28.835Z,44.58
2022-07-30T23:35:56.818Z,43.50
2022-07-30T23:38:25.224Z,42.78
2022-07-30T23:40:53.168Z,41.70
2022-07-30T23:43:21.125Z,40.60
2022-07-30T23:45:49.516Z,45.50
2022-07-30T23:48:18.814Z,42.75
2022-07-30T23:50:46.567Z,43.30
2022-07-30T23:53:14.684Z,43.60
2022-07-30T23:55:42.459Z,41.42
2022-07-30T23:58:10.293Z,42.80
